Latest Weather Observations for Maningrida Airport

IDD60801

Issued at 7:05 am CST Friday 19 September 2014 (issued every 30 minutes, with the page automatically refreshed every 10 minutes)

About weather observations | Map of weather stations | Latest weather observations for NT | Other Formats
Station Details ID: 014405 Name: MANINGRIDA AIRPORT Lat: -12.06 Lon: 134.23 Height: 28.1 m
Data from the previous 72 hours. | See also: Recent months at Maningrida Airport
Date/Time
CST
Temp
°C
App
Temp
°C
Dew
Point
Rel
Hum
%
Delta-T
°C
Wind Press
QNH
hPa
Press
MSL
hPa
Rain
since 9 am
mm
Dir
 
Spd
km/h
Gust
km/h
Spd
kts
Gust
kts
19/07:00am 18.4 19.7 18.4 100 0.0 S 9 13 5 7 1014.3 1014.1 0.0
19/06:30am 18.0 19.1 18.0 100 0.0 S 9 13 5 7 1013.9 1013.7 0.0
19/06:00am 17.4 18.2 17.4 100 0.0 S 9 11 5 6 1013.5 1013.3 0.0
19/05:30am 17.7 19.1 17.7 100 0.0 S 7 9 4 5 1013.4 1013.2 0.0
19/05:00am 18.2 19.8 18.2 100 0.0 S 7 11 4 6 1013.2 1013.0 0.0
19/04:30am 18.5 19.8 18.5 100 0.0 S 9 11 5 6 1013.1 1012.9 0.0
19/04:00am 18.8 20.6 18.8 100 0.0 SSW 7 9 4 5 1013.0 1012.8 0.0
19/03:30am 19.3 21.4 19.3 100 0.0 SSW 7 11 4 6 1013.1 1012.9 0.0
19/03:00am 19.8 22.1 19.8 100 0.0 SSW 7 9 4 5 1013.3 1013.1 0.0
19/02:30am 20.1 23.9 20.1 100 0.0 CALM 0 6 0 3 1013.5 1013.3 0.0
19/02:00am 21.0 23.5 21.0 100 0.0 S 9 11 5 6 1013.8 1013.6 0.0
19/01:30am 21.7 24.6 21.0 96 0.5 SSE 7 9 4 5 1014.2 1014.0 0.0
19/01:00am 22.8 25.1 22.0 95 0.5 SSE 13 13 7 7 1014.5 1014.3 0.0
19/12:30am 23.2 25.7 21.8 92 0.9 ESE 11 13 6 7 1014.7 1014.5 0.0
19/12:00am 23.4 25.9 21.8 91 1.1 ESE 11 13 6 7 1015.0 1014.8 0.0
 
Date/Time
CST
Temp
°C
App
Temp
°C
Dew
Point
Rel
Hum
%
Delta-T
°C
Wind Press
QNH
hPa
Press
MSL
hPa
Rain
since 9 am
mm
Dir
 
Spd
km/h
Gust
km/h
Spd
kts
Gust
kts
18/11:30pm 23.4 26.3 21.8 91 1.1 ESE 9 13 5 7 1015.1 1014.9 0.0
18/11:00pm 23.6 26.5 21.7 89 1.3 ESE 9 11 5 6 1015.1 1014.9 0.0
18/10:30pm 23.8 26.8 21.9 89 1.3 ESE 9 13 5 7 1015.2 1015.0 0.0
18/10:00pm 24.1 27.0 21.8 87 1.5 E 9 11 5 6 1015.1 1014.9 0.0
18/09:30pm 24.4 27.7 21.5 84 1.9 E 6 7 3 4 1014.7 1014.5 0.0
18/09:00pm 24.8 27.9 21.5 82 2.2 E 7 9 4 5 1014.5 1014.3 0.0
18/08:30pm 25.3 28.3 21.2 78 2.7 E 7 9 4 5 1014.1 1013.9 0.0
18/08:00pm 25.8 28.7 21.0 75 3.2 E 7 11 4 6 1013.8 1013.6 0.0
18/07:30pm 26.2 28.1 20.5 71 3.7 ENE 11 17 6 9 1013.3 1013.1 0.0
18/07:00pm 26.5 27.8 20.1 68 4.2 NE 13 17 7 9 1013.2 1013.0 0.0
18/06:30pm 26.9 27.8 19.3 63 4.9 NE 13 19 7 10 1012.8 1012.6 0.0
18/06:00pm 27.8 27.3 17.9 54 6.3 NE 17 24 9 13 1012.5 1012.3 0.0
18/05:30pm 28.9 29.1 17.7 50 7.1 NE 13 20 7 11 1012.1 1011.9 0.0
18/05:00pm 29.2 28.8 18.0 51 7.1 NNE 17 22 9 12 1011.9 1011.7 0.0
18/04:30pm 29.6 29.1 17.8 49 7.5 N 17 20 9 11 1011.7 1011.5 0.0
18/04:00pm 30.6 29.2 16.6 43 8.8 NE 19 24 10 13 1011.8 1011.6 0.0
18/03:30pm 30.0 28.9 17.8 48 7.8 N 20 26 11 14 1012.1 1011.9 0.0
18/03:00pm 30.0 29.2 18.4 49 7.5 N 20 28 11 15 1012.6 1012.4 0.0
18/02:30pm 31.3 29.4 15.7 39 9.7 NE 20 26 11 14 1013.1 1012.9 0.0
18/02:00pm 31.4 30.1 16.9 41 9.2 NNE 19 24 10 13 1013.7 1013.5 0.0
18/01:30pm 31.3 30.5 17.9 44 8.6 NE 19 26 10 14 1014.1 1013.9 0.0
18/01:00pm 31.4 31.7 18.0 44 8.6 NE 13 22 7 12 1014.5 1014.3 0.0
18/12:30pm 30.3 30.0 17.4 46 8.2 ENE 15 24 8 13 1015.2 1015.0 0.0
18/12:00pm 29.5 30.4 20.9 60 5.7 ENE 17 24 9 13 1015.8 1015.6 0.0
18/11:30am 28.7 29.1 21.0 63 5.1 NE 20 28 11 15 1015.9 1015.7 0.0
18/11:00am 28.6 28.6 20.1 60 5.6 NE 20 28 11 15 1016.3 1016.1 0.0
18/10:30am 29.2 28.8 18.0 51 7.1 ENE 17 26 9 14 1016.5 1016.3 0.0
18/10:00am 29.6 28.4 16.1 44 8.4 E 17 24 9 13 1016.6 1016.4 0.0
18/09:30am 28.7 28.3 16.3 47 7.7 ESE 13 20 7 11 1016.1 1015.9 0.0
18/09:00am 26.7 26.9 17.7 57 5.7 SE 13 17 7 9 1016.1 1015.9 0.0
18/08:30am 24.6 25.8 19.0 71 3.6 S 11 15 6 8 1015.8 1015.6 0.0
18/08:00am 23.3 24.5 19.0 77 2.7 S 11 17 6 9 1015.4 1015.2 0.0
18/07:30am 21.1 23.9 20.4 96 0.5 S 6 9 3 5 1015.1 1014.9 0.0
18/07:00am 19.7 21.9 19.7 100 0.0 S 7 11 4 6 1014.7 1014.5 0.0
18/06:30am 19.2 20.8 19.2 100 0.0 S 9 13 5 7 1014.1 1013.9 0.0
18/06:00am 18.9 20.8 18.9 100 0.0 S 7 11 4 6 1013.9 1013.7 0.0
18/05:30am 18.9 20.8 18.9 100 0.0 S 7 11 4 6 1013.5 1013.3 0.0
18/05:00am 19.0 20.9 19.0 100 0.0 S 7 11 4 6 1013.4 1013.2 0.0
18/04:30am 19.4 21.7 19.4 100 0.0 S 6 9 3 5 1013.3 1013.1 0.0
18/04:00am 19.8 22.1 19.8 100 0.0 S 7 11 4 6 1013.2 1013.0 0.0
18/03:30am 19.9 22.4 19.9 100 0.0 SSE 6 9 3 5 1013.3 1013.1 0.0
18/03:00am 19.8 22.3 19.8 100 0.0 SSE 6 9 3 5 1013.3 1013.1 0.0
18/02:30am 20.8 23.2 20.8 100 0.0 SSE 9 11 5 6 1013.6 1013.4 0.0
18/02:00am 21.0 23.5 21.0 100 0.0 S 9 11 5 6 1013.9 1013.7 0.0
18/01:30am 20.5 23.3 20.5 100 0.0 S 6 6 3 3 1014.3 1014.1 0.0
18/01:01am 20.7 23.6 20.7 100 0.0 SE 6 7 3 4 1014.4 1014.2 0.0
18/01:00am 20.6 23.5 20.6 100 0.0 SE 6 7 3 4 1014.4 1014.2 0.0
18/12:42am 20.8 24.9 20.8 100 0.0 CALM 0 0 0 0 1014.6 1014.4 0.0
18/12:30am 20.9 24.2 20.7 99 0.1 ESE 4 6 2 3 1014.6 1014.4 0.0
18/12:10am 21.1 24.4 20.8 98 0.2 ESE 4 6 2 3 1014.7 1014.5 0.0
18/12:00am 21.2 24.1 20.7 97 0.3 ESE 6 7 3 4 1014.7 1014.5 0.0
 
Date/Time
CST
Temp
°C
App
Temp
°C
Dew
Point
Rel
Hum
%
Delta-T
°C
Wind Press
QNH
hPa
Press
MSL
hPa
Rain
since 9 am
mm
Dir
 
Spd
km/h
Gust
km/h
Spd
kts
Gust
kts
17/11:51pm 21.4 24.3 20.7 96 0.5 ESE 6 7 3 4 1014.9 1014.7 0.0
17/11:30pm 21.8 25.0 20.6 93 0.8 E 4 6 2 3 1014.8 1014.6 0.0
17/11:00pm 22.7 25.9 20.4 87 1.5 E 4 6 2 3 1014.8 1014.6 0.0
17/10:30pm 23.5 26.3 20.4 83 2.0 ESE 6 7 3 4 1014.9 1014.7 0.0
17/10:00pm 24.2 27.2 20.9 82 2.2 SE 6 7 3 4 1014.9 1014.7 0.0
17/09:30pm 25.2 28.3 21.5 80 2.5 E 7 11 4 6 1014.8 1014.6 0.0
17/09:00pm 25.3 27.9 21.2 78 2.7 E 9 11 5 6 1014.4 1014.2 0.0
17/08:30pm 25.5 27.6 21.0 76 3.0 ENE 11 15 6 8 1014.1 1013.9 0.0
17/08:00pm 25.5 27.7 20.5 74 3.3 ENE 9 15 5 8 1013.7 1013.5 0.0
17/07:30pm 25.8 27.7 20.6 73 3.4 ENE 11 17 6 9 1013.2 1013.0 0.0
17/07:00pm 26.0 27.4 20.3 71 3.7 ENE 13 19 7 10 1012.8 1012.6 0.0
17/06:30pm 26.3 27.0 20.4 70 3.9 NE 17 28 9 15 1012.5 1012.3 0.0
17/06:00pm 26.5 26.9 20.6 70 3.9 NE 19 24 10 13 1012.1 1011.9 0.0
17/05:30pm 26.8 27.1 20.4 68 4.2 NE 19 28 10 15 1011.6 1011.4 0.0
17/05:00pm 27.5 27.3 20.6 66 4.5 NE 22 32 12 17 1011.3 1011.1 0.0
17/04:30pm 28.3 28.6 20.8 63 5.0 NNE 20 28 11 15 1011.0 1010.9 0.0
17/04:00pm 28.7 29.0 20.7 62 5.3 NNE 20 33 11 18 1010.8 1010.7 0.0
17/03:30pm 28.5 27.6 19.1 56 6.1 NE 22 32 12 17 1010.7 1010.6 0.0
17/03:00pm 29.2 28.8 20.1 58 6.0 NE 22 32 12 17 1010.9 1010.8 0.0
17/02:30pm 29.7 29.5 19.7 55 6.6 ENE 20 30 11 16 1011.4 1011.2 0.0
17/02:00pm 29.2 28.3 19.8 57 6.2 ENE 24 32 13 17 1011.9 1011.7 0.0
17/01:30pm 29.6 29.5 19.6 55 6.5 ENE 19 30 10 16 1012.4 1012.2 0.0
17/01:00pm 29.9 29.9 20.2 56 6.4 NE 20 33 11 18 1012.7 1012.5 0.0
17/12:30pm 29.4 29.7 20.3 58 6.0 ENE 19 28 10 15 1013.4 1013.2 0.0
17/12:00pm 29.4 29.7 20.8 60 5.7 NE 20 35 11 19 1013.8 1013.6 0.0
17/11:30am 29.1 28.7 19.4 55 6.3 ENE 20 32 11 17 1014.2 1014.0 0.0
17/11:00am 29.4 28.3 17.2 47 7.7 E 19 30 10 16 1014.5 1014.3 0.0
17/10:30am 29.9 27.8 14.8 39 9.2 NE 19 24 10 13 1014.7 1014.5 0.0
17/10:00am 29.7 28.5 13.9 38 9.5 E 13 20 7 11 1014.7 1014.5 0.0
17/09:30am 28.5 28.7 16.7 48 7.4 ESE 11 17 6 9 1014.6 1014.4 0.0
17/09:00am 27.3 28.4 18.0 56 5.9 E 9 13 5 7 1014.2 1014.0 0.0
17/08:30am 25.4 26.3 18.3 65 4.5 SE 11 15 6 8 1014.1 1013.9 0.0
17/08:00am 24.0 25.7 20.1 79 2.5 SE 11 15 6 8 1013.9 1013.7 0.0
17/07:30am 21.6 24.5 21.1 97 0.3 SSE 7 9 4 5 1013.5 1013.3 0.0
17/07:02am 19.7 21.9 19.7 100 0.0 SSE 7 9 4 5 1013.1 1012.9 0.0
17/07:00am 19.7 21.9 19.7 100 0.0 SSE 7 7 4 4 1013.1 1012.9 0.0
17/06:50am 19.5 21.7 19.5 100 0.0 SSE 7 9 4 5 1012.9 1012.7 0.0
17/06:30am 19.5 21.3 19.5 100 0.0 SSE 9 9 5 5 1012.6 1012.4 0.0
17/06:00am 19.2 20.8 19.2 100 0.0 SSE 9 9 5 5 1012.4 1012.2 0.0
17/05:30am 19.0 20.9 19.0 100 0.0 SSE 7 9 4 5 1012.1 1011.9 0.0
17/05:00am 19.6 21.8 19.6 100 0.0 SSE 7 9 4 5 1012.0 1011.8 0.0
17/04:30am 19.9 22.4 19.9 100 0.0 SSE 6 7 3 4 1011.7 1011.5 0.0
17/04:00am 20.0 22.6 20.0 100 0.0 SSE 6 7 3 4 1011.6 1011.4 0.0
17/03:30am 19.8 22.1 19.8 100 0.0 SSE 7 7 4 4 1011.4 1011.2 0.0
17/03:00am 20.5 23.1 20.5 100 0.0 SSE 7 9 4 5 1011.6 1011.4 0.0
17/02:30am 21.1 23.9 20.8 98 0.2 SSE 7 9 4 5 1011.8 1011.6 0.0
17/02:00am 21.6 24.8 21.6 100 0.0 SE 7 9 4 5 1012.1 1011.9 0.0
17/01:51am 21.5 24.5 21.2 98 0.2 SE 7 9 4 5 1012.2 1012.0 0.0
17/01:36am 21.9 25.1 21.6 98 0.2 SE 7 9 4 5 1012.4 1012.2 0.0
17/01:30am 22.0 25.1 21.5 97 0.3 SE 7 9 4 5 1012.4 1012.2 0.0
17/01:00am 21.9 25.0 21.4 97 0.3 SE 7 9 4 5 1012.6 1012.4 0.0
17/12:30am 22.4 25.6 21.7 96 0.5 SE 7 9 4 5 1012.8 1012.6 0.0
17/12:00am 22.4 25.9 22.1 98 0.2 SE 7 9 4 5 1013.0 1012.8 0.0
 
Date/Time
CST
Temp
°C
App
Temp
°C
Dew
Point
Rel
Hum
%
Delta-T
°C
Wind Press
QNH
hPa
Press
MSL
hPa
Rain
since 9 am
mm
Dir
 
Spd
km/h
Gust
km/h
Spd
kts
Gust
kts
16/11:30pm 22.6 26.1 21.9 96 0.5 SE 6 6 3 3 1013.1 1012.9 0.0
16/11:00pm 23.0 26.7 22.2 95 0.5 SE 6 7 3 4 1013.2 1013.0 0.0
16/10:30pm 23.3 26.8 22.1 93 0.8 SE 7 9 4 5 1013.1 1012.9 0.0
16/10:00pm 24.2 28.1 22.5 90 1.1 E 6 7 3 4 1013.1 1012.9 0.0
16/09:30pm 24.4 28.1 22.5 89 1.3 E 7 7 4 4 1012.9 1012.7 0.0
16/09:00pm 24.6 28.5 22.5 88 1.4 E 6 7 3 4 1012.7 1012.5 0.0
16/08:30pm 24.8 28.4 22.3 86 1.7 ENE 7 9 4 5 1012.5 1012.3 0.0
16/08:00pm 25.1 28.6 22.2 84 1.9 ENE 7 9 4 5 1012.2 1012.0 0.0
16/07:30pm 25.2 28.2 21.9 82 2.2 ENE 9 13 5 7 1011.9 1011.7 0.0
16/07:00pm 25.5 27.5 21.6 79 2.6 NE 13 17 7 9 1011.6 1011.4 0.0
16/06:30pm 25.8 27.3 21.2 76 3.0 NE 15 24 8 13 1011.3 1011.1 0.0
16/06:00pm 26.4 27.7 20.9 72 3.6 NE 15 22 8 12 1010.9 1010.8 0.0
16/05:30pm 26.8 27.6 20.6 69 4.1 NE 17 24 9 13 1010.8 1010.7 0.0
16/05:00pm 27.4 27.8 20.7 67 4.4 NNE 19 28 10 15 1010.6 1010.5 0.0
16/04:30pm 28.0 27.5 19.2 58 5.7 NNE 20 30 11 16 1010.5 1010.4 0.0
16/04:00pm 29.0 27.7 18.1 51 7.0 NNE 22 32 12 17 1010.4 1010.3 0.0
16/03:30pm 28.5 28.1 19.4 57 5.9 NE 20 30 11 16 1010.5 1010.4 0.0
16/03:00pm 28.8 28.9 20.3 60 5.6 NE 20 26 11 14 1010.8 1010.7 0.0
16/02:30pm 27.9 27.0 20.7 65 4.8 N 26 32 14 17 1011.3 1011.1 0.0
16/02:00pm 28.5 28.1 20.2 60 5.5 NNE 22 32 12 17 1011.5 1011.3 0.0
16/01:30pm 29.0 28.8 21.2 62 5.2 N 24 30 13 16 1011.8 1011.6 0.0
16/01:00pm 27.9 27.4 21.4 67 4.3 N 26 33 14 18 1012.1 1011.9 0.0
16/12:30pm 28.4 29.2 22.4 70 4.1 N 22 32 12 17 1012.6 1012.4 0.0
16/12:00pm 28.0 29.0 21.8 69 4.2 N 19 28 10 15 1013.0 1012.8 0.0
16/11:30am 30.1 29.1 17.9 48 7.8 NE 20 28 11 15 1013.2 1013.0 0.0
16/11:00am 29.0 28.1 18.1 51 7.0 NE 20 28 11 15 1013.5 1013.3 0.0
16/10:30am 29.1 30.2 18.8 53 6.6 N 11 20 6 11 1013.5 1013.3 0.0
16/10:00am 27.9 30.0 21.0 66 4.6 N 11 19 6 10 1013.8 1013.6 0.0
16/09:30am 27.5 29.9 20.8 67 4.4 ENE 9 15 5 8 1013.8 1013.6 0.0
16/09:00am 26.0 29.0 21.9 78 2.7 ENE 9 17 5 9 1013.7 1013.5 0.0
16/08:30am 24.5 27.6 21.4 83 2.0 SSE 7 13 4 7 1013.7 1013.5 0.0
16/08:00am 23.2 26.4 21.6 91 1.1 S 7 9 4 5 1013.7 1013.5 0.0
16/07:30am 21.4 24.5 21.4 100 0.0 S 7 11 4 6 1013.1 1012.9 0.0

Other Formats:

Comma delimited format used in spreadsheet applications
http://www.bom.gov.au/fwo/IDD60801/IDD60801.95142.axf

JavaScript Object Notation format (JSON) in row-major order
http://www.bom.gov.au/fwo/IDD60801/IDD60801.95142.json